Fullerton, CA

11:47 AM PDT on October 31, 2014 (GMT -0700)
MesoWest Fullerton CSU CA US SGXWFO | Change Station
CLOSE
Current Station
Personal Weather Station
Location: Fullerton, CA
Elevation: 240 ft
Nearby Weather Stations

Elev 240 ft 33.88 °N, 117.89 °W | Updated 57 minutes ago

Overcast
Overcast
69 °F
Feels Like 69 °F
N
4
Wind Variable Wind from SE
Gusts 0.0 mph

Today
High -- | Low -- °F
--% Chance of Precip.
Yesterday
High -- | Low -- °F
Precip. -- in
7:10 AM 5:59 PM
First Quarter, 58% visible
Pressure 29.95 in
Visibility 10.0 miles
Clouds Mostly Cloudy 4400 ft
Dew Point 60 °F
Humidity 72%
Rainfall -999.00 in
Snow Depth Not available.
UV 2 out of 12
Pollen 3.10 out of 12
Air Quality Not available.
Flu Activity Not available.
METAR KFUL 311753Z 00000KT 10SM BKN044 21/13 A2995 RMK AO2 SLP142 T02110133 10222 20156 50001

More Conditions Fewer Conditions

Pressure 29.95 in
Visibility 10.0 miles
Clouds Mostly Cloudy 4400 ft
Dew Point 60 °F
Humidity 72%
Rainfall -999.00 in
Snow Depth Not available.
UV 2 out of 12
Pollen 3.10 out of 12
Air Quality Not available.
Flu Activity Not available.
METAR KFUL 311753Z 00000KT 10SM BKN044 21/13 A2995 RMK AO2 SLP142 T02110133 10222 20156 50001

More Conditions Fewer Conditions

10-Day Weather Forecast

Almanac

Astronomy

Oct. 31, 2014 Rise Set
Actual Time
Civil Twilight
Nautical Twilight
Astronomical Twilight
Moon
Length of Visible Light
Length of Day
Tomorrow will be .
, % of the Moon is Illuminated

Today's Extremes

State Highs State Lows

Community

WunderPhotos

Upload Photos

1,766,690 photos uploaded!

WunderBlogs® & News

Nearby

Air Quality

  Air Quality AQ Index Pollutant
Not available.

Snow Depth

Station Depth Elevation

Earthquake Activity

City Distance Mag. Time & Date
Minimum magnitude displayed is 2.5.

Coastal Water Temperatures

Place Temperature

Nearby Weather Stations